sensor_id;sensor_type;location;lat;lon;timestamp;P1;durP1;ratioP1;P2;durP2;ratioP2
3698;SDS011;1865;50.918;7.092;2022-12-29T00:00:53;3.70;;;0.70;;
3698;SDS011;1865;50.918;7.092;2022-12-29T00:03:19;3.63;;;0.60;;
3698;SDS011;1865;50.918;7.092;2022-12-29T00:05:44;3.00;;;0.40;;
3698;SDS011;1865;50.918;7.092;2022-12-29T00:08:10;3.87;;;0.53;;
3698;SDS011;1865;50.918;7.092;2022-12-29T00:10:35;3.70;;;0.60;;
3698;SDS011;1865;50.918;7.092;2022-12-29T00:13:01;4.20;;;0.87;;
3698;SDS011;1865;50.918;7.092;2022-12-29T00:15:52;3.47;;;0.70;;
3698;SDS011;1865;50.918;7.092;2022-12-29T00:18:18;3.10;;;0.50;;
3698;SDS011;1865;50.918;7.092;2022-12-29T00:20:43;3.30;;;0.60;;
3698;SDS011;1865;50.918;7.092;2022-12-29T00:23:28;3.97;;;0.50;;
3698;SDS011;1865;50.918;7.092;2022-12-29T00:26:15;3.40;;;0.60;;
3698;SDS011;1865;50.918;7.092;2022-12-29T00:29:00;3.97;;;0.40;;
3698;SDS011;1865;50.918;7.092;2022-12-29T00:31:44;3.00;;;0.40;;
3698;SDS011;1865;50.918;7.092;2022-12-29T00:34:28;3.53;;;0.57;;
3698;SDS011;1865;50.918;7.092;2022-12-29T00:37:12;4.47;;;0.50;;
3698;SDS011;1865;50.918;7.092;2022-12-29T00:39:37;3.00;;;0.40;;
3698;SDS011;1865;50.918;7.092;2022-12-29T00:42:21;4.70;;;0.80;;
3698;SDS011;1865;50.918;7.092;2022-12-29T00:45:05;3.40;;;0.60;;
3698;SDS011;1865;50.918;7.092;2022-12-29T00:47:31;3.37;;;0.40;;
3698;SDS011;1865;50.918;7.092;2022-12-29T00:49:56;3.93;;;0.40;;
3698;SDS011;1865;50.918;7.092;2022-12-29T00:52:22;3.27;;;0.40;;
3698;SDS011;1865;50.918;7.092;2022-12-29T00:54:47;4.07;;;0.50;;
3698;SDS011;1865;50.918;7.092;2022-12-29T00:57:13;4.00;;;0.50;;
3698;SDS011;1865;50.918;7.092;2022-12-29T00:59:39;3.20;;;0.40;;
3698;SDS011;1865;50.918;7.092;2022-12-29T01:02:06;3.10;;;0.40;;
3698;SDS011;1865;50.918;7.092;2022-12-29T01:04:32;3.10;;;0.30;;
3698;SDS011;1865;50.918;7.092;2022-12-29T01:06:58;3.20;;;0.40;;
3698;SDS011;1865;50.918;7.092;2022-12-29T01:09:23;3.60;;;0.47;;
3698;SDS011;1865;50.918;7.092;2022-12-29T01:12:08;3.13;;;0.40;;
3698;SDS011;1865;50.918;7.092;2022-12-29T01:14:34;3.00;;;0.40;;
3698;SDS011;1865;50.918;7.092;2022-12-29T01:17:00;3.30;;;0.50;;
3698;SDS011;1865;50.918;7.092;2022-12-29T01:19:26;3.10;;;0.40;;
3698;SDS011;1865;50.918;7.092;2022-12-29T01:21:52;3.20;;;0.40;;
3698;SDS011;1865;50.918;7.092;2022-12-29T01:24:18;3.10;;;0.40;;
3698;SDS011;1865;50.918;7.092;2022-12-29T01:26:45;3.40;;;0.37;;
3698;SDS011;1865;50.918;7.092;2022-12-29T01:29:11;3.77;;;0.40;;
3698;SDS011;1865;50.918;7.092;2022-12-29T01:31:36;3.30;;;0.50;;
3698;SDS011;1865;50.918;7.092;2022-12-29T01:34:02;3.60;;;0.50;;
3698;SDS011;1865;50.918;7.092;2022-12-29T01:36:29;3.20;;;0.40;;
3698;SDS011;1865;50.918;7.092;2022-12-29T01:38:55;3.60;;;0.40;;
3698;SDS011;1865;50.918;7.092;2022-12-29T01:41:21;4.07;;;0.40;;
3698;SDS011;1865;50.918;7.092;2022-12-29T01:43:48;3.33;;;0.53;;
3698;SDS011;1865;50.918;7.092;2022-12-29T01:49:11;3.27;;;0.40;;
3698;SDS011;1865;50.918;7.092;2022-12-29T01:51:44;3.50;;;0.40;;
3698;SDS011;1865;50.918;7.092;2022-12-29T01:54:28;3.20;;;0.40;;
3698;SDS011;1865;50.918;7.092;2022-12-29T01:56:57;4.20;;;0.57;;
3698;SDS011;1865;50.918;7.092;2022-12-29T01:59:27;3.30;;;0.40;;
3698;SDS011;1865;50.918;7.092;2022-12-29T02:01:56;3.30;;;0.40;;
3698;SDS011;1865;50.918;7.092;2022-12-29T02:04:23;3.70;;;0.50;;
3698;SDS011;1865;50.918;7.092;2022-12-29T02:06:51;3.73;;;0.40;;
3698;SDS011;1865;50.918;7.092;2022-12-29T02:09:20;3.60;;;0.40;;
3698;SDS011;1865;50.918;7.092;2022-12-29T02:11:46;3.50;;;0.50;;
3698;SDS011;1865;50.918;7.092;2022-12-29T02:14:13;3.60;;;0.43;;
3698;SDS011;1865;50.918;7.092;2022-12-29T02:22:27;3.77;;;0.43;;
3698;SDS011;1865;50.918;7.092;2022-12-29T02:25:30;3.80;;;0.47;;
3698;SDS011;1865;50.918;7.092;2022-12-29T02:31:16;4.23;;;0.60;;
3698;SDS011;1865;50.918;7.092;2022-12-29T02:37:13;3.77;;;0.60;;
3698;SDS011;1865;50.918;7.092;2022-12-29T02:40:22;5.10;;;0.60;;
3698;SDS011;1865;50.918;7.092;2022-12-29T02:43:11;4.53;;;0.60;;
3698;SDS011;1865;50.918;7.092;2022-12-29T02:45:53;4.00;;;0.60;;
3698;SDS011;1865;50.918;7.092;2022-12-29T02:48:43;3.80;;;0.60;;
3698;SDS011;1865;50.918;7.092;2022-12-29T02:51:21;4.00;;;0.50;;
3698;SDS011;1865;50.918;7.092;2022-12-29T02:53:51;3.60;;;0.43;;
3698;SDS011;1865;50.918;7.092;2022-12-29T02:56:37;4.80;;;0.53;;
3698;SDS011;1865;50.918;7.092;2022-12-29T02:59:03;3.70;;;0.60;;
3698;SDS011;1865;50.918;7.092;2022-12-29T03:10:19;4.03;;;0.50;;
3698;SDS011;1865;50.918;7.092;2022-12-29T03:16:26;3.60;;;0.47;;
3698;SDS011;1865;50.918;7.092;2022-12-29T03:19:44;4.47;;;0.50;;
3698;SDS011;1865;50.918;7.092;2022-12-29T03:22:04;3.70;;;0.53;;
3698;SDS011;1865;50.918;7.092;2022-12-29T03:24:59;3.40;;;0.40;;
3698;SDS011;1865;50.918;7.092;2022-12-29T03:27:31;3.80;;;0.50;;
3698;SDS011;1865;50.918;7.092;2022-12-29T03:30:01;4.20;;;0.50;;
3698;SDS011;1865;50.918;7.092;2022-12-29T03:32:31;3.93;;;0.60;;
3698;SDS011;1865;50.918;7.092;2022-12-29T03:35:07;5.00;;;0.50;;
3698;SDS011;1865;50.918;7.092;2022-12-29T03:37:36;3.80;;;0.50;;
3698;SDS011;1865;50.918;7.092;2022-12-29T03:40:05;4.40;;;0.50;;
3698;SDS011;1865;50.918;7.092;2022-12-29T03:42:32;4.30;;;0.40;;
3698;SDS011;1865;50.918;7.092;2022-12-29T03:45:00;4.00;;;0.70;;
3698;SDS011;1865;50.918;7.092;2022-12-29T03:47:26;3.80;;;0.60;;
3698;SDS011;1865;50.918;7.092;2022-12-29T03:49:51;4.40;;;0.50;;
3698;SDS011;1865;50.918;7.092;2022-12-29T03:52:17;3.27;;;0.37;;
3698;SDS011;1865;50.918;7.092;2022-12-29T03:54:43;3.43;;;0.40;;
3698;SDS011;1865;50.918;7.092;2022-12-29T03:57:10;4.77;;;0.60;;
3698;SDS011;1865;50.918;7.092;2022-12-29T03:59:36;4.00;;;0.50;;
3698;SDS011;1865;50.918;7.092;2022-12-29T04:02:01;3.90;;;0.60;;
3698;SDS011;1865;50.918;7.092;2022-12-29T04:04:27;4.20;;;0.60;;
3698;SDS011;1865;50.918;7.092;2022-12-29T04:06:52;4.10;;;0.60;;
3698;SDS011;1865;50.918;7.092;2022-12-29T04:09:18;4.47;;;0.57;;
3698;SDS011;1865;50.918;7.092;2022-12-29T04:11:44;5.50;;;0.57;;
3698;SDS011;1865;50.918;7.092;2022-12-29T04:14:09;3.60;;;0.50;;
3698;SDS011;1865;50.918;7.092;2022-12-29T04:16:35;5.47;;;0.50;;
3698;SDS011;1865;50.918;7.092;2022-12-29T04:19:01;3.90;;;0.50;;
3698;SDS011;1865;50.918;7.092;2022-12-29T04:21:27;3.50;;;0.50;;
3698;SDS011;1865;50.918;7.092;2022-12-29T04:23:52;3.50;;;0.40;;
3698;SDS011;1865;50.918;7.092;2022-12-29T04:26:18;3.57;;;0.50;;
3698;SDS011;1865;50.918;7.092;2022-12-29T04:28:43;3.67;;;0.40;;
3698;SDS011;1865;50.918;7.092;2022-12-29T04:31:09;3.80;;;0.50;;
3698;SDS011;1865;50.918;7.092;2022-12-29T04:33:35;3.90;;;0.50;;
3698;SDS011;1865;50.918;7.092;2022-12-29T04:36:00;3.40;;;0.40;;
3698;SDS011;1865;50.918;7.092;2022-12-29T04:38:26;3.50;;;0.40;;
3698;SDS011;1865;50.918;7.092;2022-12-29T04:40:51;4.53;;;0.50;;
3698;SDS011;1865;50.918;7.092;2022-12-29T04:43:17;5.10;;;0.70;;
3698;SDS011;1865;50.918;7.092;2022-12-29T04:45:47;4.10;;;0.70;;
3698;SDS011;1865;50.918;7.092;2022-12-29T04:48:13;3.30;;;0.50;;
3698;SDS011;1865;50.918;7.092;2022-12-29T04:50:39;3.57;;;0.50;;
3698;SDS011;1865;50.918;7.092;2022-12-29T04:53:05;3.23;;;0.30;;
3698;SDS011;1865;50.918;7.092;2022-12-29T04:55:31;4.20;;;0.70;;
3698;SDS011;1865;50.918;7.092;2022-12-29T04:57:56;3.50;;;0.40;;
3698;SDS011;1865;50.918;7.092;2022-12-29T05:00:22;5.40;;;0.47;;
3698;SDS011;1865;50.918;7.092;2022-12-29T05:02:48;3.37;;;0.40;;
3698;SDS011;1865;50.918;7.092;2022-12-29T05:05:13;3.50;;;0.40;;
3698;SDS011;1865;50.918;7.092;2022-12-29T05:07:39;3.93;;;0.50;;
3698;SDS011;1865;50.918;7.092;2022-12-29T05:10:05;4.60;;;0.70;;
3698;SDS011;1865;50.918;7.092;2022-12-29T05:12:32;5.30;;;0.60;;
3698;SDS011;1865;50.918;7.092;2022-12-29T05:14:58;3.87;;;0.50;;
3698;SDS011;1865;50.918;7.092;2022-12-29T05:17:24;3.80;;;0.50;;
3698;SDS011;1865;50.918;7.092;2022-12-29T05:19:50;3.50;;;0.43;;
3698;SDS011;1865;50.918;7.092;2022-12-29T05:22:16;4.00;;;0.50;;
3698;SDS011;1865;50.918;7.092;2022-12-29T05:24:41;5.10;;;0.50;;
3698;SDS011;1865;50.918;7.092;2022-12-29T05:27:07;3.70;;;0.50;;
3698;SDS011;1865;50.918;7.092;2022-12-29T05:29:32;4.47;;;0.50;;
3698;SDS011;1865;50.918;7.092;2022-12-29T05:31:58;4.80;;;0.60;;
3698;SDS011;1865;50.918;7.092;2022-12-29T05:34:24;3.70;;;0.50;;
3698;SDS011;1865;50.918;7.092;2022-12-29T05:36:49;5.10;;;0.60;;
3698;SDS011;1865;50.918;7.092;2022-12-29T05:39:15;4.10;;;0.40;;
3698;SDS011;1865;50.918;7.092;2022-12-29T05:41:40;4.10;;;0.50;;
3698;SDS011;1865;50.918;7.092;2022-12-29T05:44:05;3.57;;;0.47;;
3698;SDS011;1865;50.918;7.092;2022-12-29T05:46:31;4.60;;;0.53;;
3698;SDS011;1865;50.918;7.092;2022-12-29T05:48:56;6.03;;;0.40;;
3698;SDS011;1865;50.918;7.092;2022-12-29T05:51:22;4.10;;;0.40;;
3698;SDS011;1865;50.918;7.092;2022-12-29T05:53:48;6.67;;;0.53;;
3698;SDS011;1865;50.918;7.092;2022-12-29T05:56:13;5.03;;;0.40;;
3698;SDS011;1865;50.918;7.092;2022-12-29T05:58:39;4.63;;;0.50;;
3698;SDS011;1865;50.918;7.092;2022-12-29T06:01:04;3.80;;;0.40;;
3698;SDS011;1865;50.918;7.092;2022-12-29T06:03:30;8.40;;;0.50;;
3698;SDS011;1865;50.918;7.092;2022-12-29T06:05:56;4.10;;;0.50;;
3698;SDS011;1865;50.918;7.092;2022-12-29T06:08:21;3.50;;;0.30;;
3698;SDS011;1865;50.918;7.092;2022-12-29T06:10:47;3.90;;;0.50;;
3698;SDS011;1865;50.918;7.092;2022-12-29T06:13:12;5.70;;;0.60;;
3698;SDS011;1865;50.918;7.092;2022-12-29T06:15:38;3.50;;;0.30;;
3698;SDS011;1865;50.918;7.092;2022-12-29T06:18:03;3.50;;;0.40;;
3698;SDS011;1865;50.918;7.092;2022-12-29T06:20:29;5.17;;;0.40;;
3698;SDS011;1865;50.918;7.092;2022-12-29T06:22:54;3.83;;;0.40;;
3698;SDS011;1865;50.918;7.092;2022-12-29T06:25:20;3.50;;;0.40;;
3698;SDS011;1865;50.918;7.092;2022-12-29T06:27:45;5.40;;;0.50;;
3698;SDS011;1865;50.918;7.092;2022-12-29T06:30:11;3.50;;;0.40;;
3698;SDS011;1865;50.918;7.092;2022-12-29T06:32:37;3.40;;;0.40;;
3698;SDS011;1865;50.918;7.092;2022-12-29T06:35:04;4.77;;;0.50;;
3698;SDS011;1865;50.918;7.092;2022-12-29T06:37:31;4.10;;;0.50;;
3698;SDS011;1865;50.918;7.092;2022-12-29T06:39:56;3.70;;;0.40;;
3698;SDS011;1865;50.918;7.092;2022-12-29T06:42:22;5.10;;;0.50;;
3698;SDS011;1865;50.918;7.092;2022-12-29T06:44:47;3.30;;;0.40;;
3698;SDS011;1865;50.918;7.092;2022-12-29T06:47:13;3.70;;;0.50;;
3698;SDS011;1865;50.918;7.092;2022-12-29T06:49:38;4.40;;;0.60;;
3698;SDS011;1865;50.918;7.092;2022-12-29T06:52:04;10.93;;;0.50;;
3698;SDS011;1865;50.918;7.092;2022-12-29T06:54:30;4.17;;;0.57;;
3698;SDS011;1865;50.918;7.092;2022-12-29T06:56:56;3.87;;;0.40;;
3698;SDS011;1865;50.918;7.092;2022-12-29T06:59:21;3.57;;;0.47;;
3698;SDS011;1865;50.918;7.092;2022-12-29T07:01:47;5.43;;;0.50;;
3698;SDS011;1865;50.918;7.092;2022-12-29T07:04:12;6.10;;;0.70;;
3698;SDS011;1865;50.918;7.092;2022-12-29T07:06:38;4.80;;;0.80;;
3698;SDS011;1865;50.918;7.092;2022-12-29T07:09:05;5.70;;;0.70;;
3698;SDS011;1865;50.918;7.092;2022-12-29T07:11:31;4.43;;;0.50;;
3698;SDS011;1865;50.918;7.092;2022-12-29T07:13:57;3.80;;;0.40;;
3698;SDS011;1865;50.918;7.092;2022-12-29T07:16:22;4.03;;;0.47;;
3698;SDS011;1865;50.918;7.092;2022-12-29T07:18:48;5.30;;;0.70;;
3698;SDS011;1865;50.918;7.092;2022-12-29T07:21:13;7.47;;;2.60;;
3698;SDS011;1865;50.918;7.092;2022-12-29T07:23:39;12.63;;;5.50;;
3698;SDS011;1865;50.918;7.092;2022-12-29T07:26:06;8.00;;;3.00;;
3698;SDS011;1865;50.918;7.092;2022-12-29T07:28:33;4.10;;;0.70;;
3698;SDS011;1865;50.918;7.092;2022-12-29T07:30:59;4.30;;;0.60;;
3698;SDS011;1865;50.918;7.092;2022-12-29T07:33:25;4.53;;;0.60;;
3698;SDS011;1865;50.918;7.092;2022-12-29T07:35:52;3.67;;;0.40;;
3698;SDS011;1865;50.918;7.092;2022-12-29T07:38:18;4.93;;;0.60;;
3698;SDS011;1865;50.918;7.092;2022-12-29T07:40:43;6.53;;;0.60;;
3698;SDS011;1865;50.918;7.092;2022-12-29T07:43:09;3.80;;;0.40;;
3698;SDS011;1865;50.918;7.092;2022-12-29T07:45:34;5.47;;;0.50;;
3698;SDS011;1865;50.918;7.092;2022-12-29T07:48:00;5.50;;;0.50;;
3698;SDS011;1865;50.918;7.092;2022-12-29T07:50:27;4.73;;;0.60;;
3698;SDS011;1865;50.918;7.092;2022-12-29T07:52:53;9.93;;;0.70;;
3698;SDS011;1865;50.918;7.092;2022-12-29T07:55:18;6.20;;;0.80;;
3698;SDS011;1865;50.918;7.092;2022-12-29T07:57:44;6.13;;;1.40;;
3698;SDS011;1865;50.918;7.092;2022-12-29T08:00:09;4.53;;;0.80;;
3698;SDS011;1865;50.918;7.092;2022-12-29T08:02:35;4.87;;;1.07;;
3698;SDS011;1865;50.918;7.092;2022-12-29T08:05:01;6.33;;;0.90;;
3698;SDS011;1865;50.918;7.092;2022-12-29T08:07:27;7.40;;;1.30;;
3698;SDS011;1865;50.918;7.092;2022-12-29T08:09:52;5.20;;;0.80;;
3698;SDS011;1865;50.918;7.092;2022-12-29T08:12:18;8.40;;;1.37;;
3698;SDS011;1865;50.918;7.092;2022-12-29T08:14:43;5.90;;;0.70;;
3698;SDS011;1865;50.918;7.092;2022-12-29T08:17:09;6.50;;;0.90;;
3698;SDS011;1865;50.918;7.092;2022-12-29T08:19:35;5.47;;;0.70;;
3698;SDS011;1865;50.918;7.092;2022-12-29T08:22:00;6.47;;;0.67;;
3698;SDS011;1865;50.918;7.092;2022-12-29T08:24:26;5.43;;;0.70;;
3698;SDS011;1865;50.918;7.092;2022-12-29T08:26:51;6.50;;;0.90;;
3698;SDS011;1865;50.918;7.092;2022-12-29T08:29:17;6.00;;;0.63;;
3698;SDS011;1865;50.918;7.092;2022-12-29T08:31:43;8.90;;;1.00;;
3698;SDS011;1865;50.918;7.092;2022-12-29T08:34:08;5.10;;;0.63;;
3698;SDS011;1865;50.918;7.092;2022-12-29T08:36:34;6.97;;;0.70;;
3698;SDS011;1865;50.918;7.092;2022-12-29T08:39:00;6.50;;;1.10;;
3698;SDS011;1865;50.918;7.092;2022-12-29T08:41:25;5.27;;;0.73;;
3698;SDS011;1865;50.918;7.092;2022-12-29T08:43:51;5.70;;;0.60;;
3698;SDS011;1865;50.918;7.092;2022-12-29T08:46:16;6.77;;;1.20;;
3698;SDS011;1865;50.918;7.092;2022-12-29T08:48:42;8.60;;;1.20;;
3698;SDS011;1865;50.918;7.092;2022-12-29T08:51:08;35.00;;;15.00;;
3698;SDS011;1865;50.918;7.092;2022-12-29T08:53:34;10.37;;;2.57;;
3698;SDS011;1865;50.918;7.092;2022-12-29T08:56:00;13.80;;;5.93;;
3698;SDS011;1865;50.918;7.092;2022-12-29T08:58:27;10.27;;;4.50;;
3698;SDS011;1865;50.918;7.092;2022-12-29T09:00:53;9.93;;;2.50;;
3698;SDS011;1865;50.918;7.092;2022-12-29T09:03:19;9.60;;;2.80;;
3698;SDS011;1865;50.918;7.092;2022-12-29T09:05:49;9.83;;;2.93;;
3698;SDS011;1865;50.918;7.092;2022-12-29T09:08:19;5.63;;;1.20;;
3698;SDS011;1865;50.918;7.092;2022-12-29T09:10:45;14.70;;;4.67;;
3698;SDS011;1865;50.918;7.092;2022-12-29T09:13:11;10.70;;;2.70;;
3698;SDS011;1865;50.918;7.092;2022-12-29T09:15:37;8.60;;;1.60;;
3698;SDS011;1865;50.918;7.092;2022-12-29T09:18:03;7.77;;;1.70;;
3698;SDS011;1865;50.918;7.092;2022-12-29T09:20:29;9.43;;;0.97;;
3698;SDS011;1865;50.918;7.092;2022-12-29T09:22:54;5.83;;;1.10;;
3698;SDS011;1865;50.918;7.092;2022-12-29T09:25:20;6.00;;;0.90;;
3698;SDS011;1865;50.918;7.092;2022-12-29T09:27:47;6.93;;;0.93;;
3698;SDS011;1865;50.918;7.092;2022-12-29T09:30:13;6.00;;;0.80;;
3698;SDS011;1865;50.918;7.092;2022-12-29T09:32:39;8.93;;;0.83;;
3698;SDS011;1865;50.918;7.092;2022-12-29T09:35:05;9.40;;;1.10;;
3698;SDS011;1865;50.918;7.092;2022-12-29T09:37:31;7.00;;;1.00;;
3698;SDS011;1865;50.918;7.092;2022-12-29T09:39:56;8.93;;;1.43;;
3698;SDS011;1865;50.918;7.092;2022-12-29T09:45:51;7.27;;;0.87;;
3698;SDS011;1865;50.918;7.092;2022-12-29T09:48:29;9.40;;;1.73;;
3698;SDS011;1865;50.918;7.092;2022-12-29T09:50:59;7.27;;;1.50;;
3698;SDS011;1865;50.918;7.092;2022-12-29T09:53:29;10.53;;;1.80;;
3698;SDS011;1865;50.918;7.092;2022-12-29T09:55:59;11.10;;;1.10;;
3698;SDS011;1865;50.918;7.092;2022-12-29T10:01:04;8.90;;;1.50;;
3698;SDS011;1865;50.918;7.092;2022-12-29T10:03:49;12.83;;;3.03;;
3698;SDS011;1865;50.918;7.092;2022-12-29T10:12:08;8.97;;;1.10;;
3698;SDS011;1865;50.918;7.092;2022-12-29T10:15:04;7.70;;;1.50;;
3698;SDS011;1865;50.918;7.092;2022-12-29T10:20:58;9.17;;;0.97;;
3698;SDS011;1865;50.918;7.092;2022-12-29T10:23:40;10.70;;;1.07;;
3698;SDS011;1865;50.918;7.092;2022-12-29T10:26:16;7.90;;;1.37;;
3698;SDS011;1865;50.918;7.092;2022-12-29T10:28:51;12.20;;;1.00;;
3698;SDS011;1865;50.918;7.092;2022-12-29T10:31:23;9.90;;;1.30;;
3698;SDS011;1865;50.918;7.092;2022-12-29T10:33:57;8.27;;;1.17;;
3698;SDS011;1865;50.918;7.092;2022-12-29T10:36:35;10.97;;;0.97;;
3698;SDS011;1865;50.918;7.092;2022-12-29T10:41:38;10.60;;;1.20;;
3698;SDS011;1865;50.918;7.092;2022-12-29T10:44:16;8.40;;;1.03;;
3698;SDS011;1865;50.918;7.092;2022-12-29T10:46:43;9.67;;;1.00;;
3698;SDS011;1865;50.918;7.092;2022-12-29T10:49:14;10.07;;;1.30;;
3698;SDS011;1865;50.918;7.092;2022-12-29T10:51:42;10.80;;;1.10;;
3698;SDS011;1865;50.918;7.092;2022-12-29T10:54:27;8.13;;;1.23;;
3698;SDS011;1865;50.918;7.092;2022-12-29T10:57:46;7.47;;;1.07;;
3698;SDS011;1865;50.918;7.092;2022-12-29T10:59:52;7.83;;;0.80;;
3698;SDS011;1865;50.918;7.092;2022-12-29T11:05:23;9.53;;;1.13;;
3698;SDS011;1865;50.918;7.092;2022-12-29T11:08:00;13.77;;;1.53;;
3698;SDS011;1865;50.918;7.092;2022-12-29T11:10:30;11.30;;;1.20;;
3698;SDS011;1865;50.918;7.092;2022-12-29T11:13:01;8.23;;;0.97;;
3698;SDS011;1865;50.918;7.092;2022-12-29T11:15:50;8.13;;;0.90;;
3698;SDS011;1865;50.918;7.092;2022-12-29T11:18:23;9.73;;;1.13;;
3698;SDS011;1865;50.918;7.092;2022-12-29T11:24:18;8.80;;;0.80;;
3698;SDS011;1865;50.918;7.092;2022-12-29T11:26:48;19.40;;;1.37;;
3698;SDS011;1865;50.918;7.092;2022-12-29T11:31:45;8.27;;;1.00;;
3698;SDS011;1865;50.918;7.092;2022-12-29T11:34:19;10.07;;;1.20;;
3698;SDS011;1865;50.918;7.092;2022-12-29T11:36:50;11.97;;;1.63;;
3698;SDS011;1865;50.918;7.092;2022-12-29T11:42:03;10.33;;;1.37;;
3698;SDS011;1865;50.918;7.092;2022-12-29T11:44:36;11.10;;;1.27;;
3698;SDS011;1865;50.918;7.092;2022-12-29T11:47:06;9.87;;;1.27;;
3698;SDS011;1865;50.918;7.092;2022-12-29T11:49:37;10.40;;;1.10;;
3698;SDS011;1865;50.918;7.092;2022-12-29T11:52:03;12.60;;;1.40;;
3698;SDS011;1865;50.918;7.092;2022-12-29T11:54:30;7.67;;;1.17;;
3698;SDS011;1865;50.918;7.092;2022-12-29T11:56:58;8.27;;;1.20;;
3698;SDS011;1865;50.918;7.092;2022-12-29T11:59:41;12.00;;;1.37;;
3698;SDS011;1865;50.918;7.092;2022-12-29T12:05:28;9.30;;;1.00;;
3698;SDS011;1865;50.918;7.092;2022-12-29T12:07:57;17.10;;;1.23;;
3698;SDS011;1865;50.918;7.092;2022-12-29T12:10:44;9.40;;;1.17;;
3698;SDS011;1865;50.918;7.092;2022-12-29T12:15:52;8.80;;;1.00;;
3698;SDS011;1865;50.918;7.092;2022-12-29T12:18:28;21.40;;;4.33;;
3698;SDS011;1865;50.918;7.092;2022-12-29T12:21:04;7.07;;;0.73;;
3698;SDS011;1865;50.918;7.092;2022-12-29T12:24:03;7.70;;;1.00;;
3698;SDS011;1865;50.918;7.092;2022-12-29T12:26:53;8.10;;;0.93;;
3698;SDS011;1865;50.918;7.092;2022-12-29T12:29:38;11.70;;;1.60;;
3698;SDS011;1865;50.918;7.092;2022-12-29T12:34:39;17.10;;;1.23;;
3698;SDS011;1865;50.918;7.092;2022-12-29T12:43:00;8.03;;;1.27;;
3698;SDS011;1865;50.918;7.092;2022-12-29T12:46:00;10.90;;;1.43;;
3698;SDS011;1865;50.918;7.092;2022-12-29T12:57:14;7.93;;;1.30;;
3698;SDS011;1865;50.918;7.092;2022-12-29T13:00:02;11.37;;;1.67;;
3698;SDS011;1865;50.918;7.092;2022-12-29T13:02:43;13.17;;;1.30;;
3698;SDS011;1865;50.918;7.092;2022-12-29T13:07:58;7.90;;;1.43;;
3698;SDS011;1865;50.918;7.092;2022-12-29T13:19:13;16.30;;;1.17;;
3698;SDS011;1865;50.918;7.092;2022-12-29T13:21:23;8.00;;;0.83;;
3698;SDS011;1865;50.918;7.092;2022-12-29T13:24:06;12.93;;;1.13;;
3698;SDS011;1865;50.918;7.092;2022-12-29T13:32:09;10.73;;;1.80;;
3698;SDS011;1865;50.918;7.092;2022-12-29T13:35:10;12.43;;;1.10;;
3698;SDS011;1865;50.918;7.092;2022-12-29T13:38:00;9.97;;;1.10;;
3698;SDS011;1865;50.918;7.092;2022-12-29T13:40:39;7.97;;;0.90;;
3698;SDS011;1865;50.918;7.092;2022-12-29T13:43:08;8.23;;;1.00;;
3698;SDS011;1865;50.918;7.092;2022-12-29T13:45:34;7.13;;;1.00;;
3698;SDS011;1865;50.918;7.092;2022-12-29T13:48:09;11.90;;;1.20;;
3698;SDS011;1865;50.918;7.092;2022-12-29T13:50:40;10.13;;;1.50;;
3698;SDS011;1865;50.918;7.092;2022-12-29T13:53:18;12.90;;;1.00;;
3698;SDS011;1865;50.918;7.092;2022-12-29T14:01:30;12.53;;;1.10;;
3698;SDS011;1865;50.918;7.092;2022-12-29T14:04:23;12.17;;;1.37;;
3698;SDS011;1865;50.918;7.092;2022-12-29T14:07:01;11.07;;;1.40;;
3698;SDS011;1865;50.918;7.092;2022-12-29T14:09:40;12.97;;;1.20;;
3698;SDS011;1865;50.918;7.092;2022-12-29T14:12:19;11.27;;;1.50;;
3698;SDS011;1865;50.918;7.092;2022-12-29T14:14:55;10.80;;;1.60;;
3698;SDS011;1865;50.918;7.092;2022-12-29T14:17:39;10.67;;;1.30;;
3698;SDS011;1865;50.918;7.092;2022-12-29T14:20:06;10.83;;;1.23;;
3698;SDS011;1865;50.918;7.092;2022-12-29T14:28:32;13.07;;;1.53;;
3698;SDS011;1865;50.918;7.092;2022-12-29T14:42:00;7.77;;;1.50;;
3698;SDS011;1865;50.918;7.092;2022-12-29T14:47:36;16.93;;;1.60;;
3698;SDS011;1865;50.918;7.092;2022-12-29T14:50:06;8.13;;;1.10;;
3698;SDS011;1865;50.918;7.092;2022-12-29T14:52:47;10.23;;;1.30;;
3698;SDS011;1865;50.918;7.092;2022-12-29T14:57:43;9.97;;;1.00;;
3698;SDS011;1865;50.918;7.092;2022-12-29T15:00:22;9.83;;;1.33;;
3698;SDS011;1865;50.918;7.092;2022-12-29T15:05:33;8.27;;;1.10;;
3698;SDS011;1865;50.918;7.092;2022-12-29T15:08:05;13.50;;;1.47;;
3698;SDS011;1865;50.918;7.092;2022-12-29T15:10:34;8.47;;;1.33;;
3698;SDS011;1865;50.918;7.092;2022-12-29T15:13:13;12.10;;;1.57;;
3698;SDS011;1865;50.918;7.092;2022-12-29T15:15:46;11.20;;;2.23;;
3698;SDS011;1865;50.918;7.092;2022-12-29T15:18:14;9.90;;;1.30;;
3698;SDS011;1865;50.918;7.092;2022-12-29T15:20:49;8.90;;;1.30;;
3698;SDS011;1865;50.918;7.092;2022-12-29T15:23:16;12.30;;;1.43;;
3698;SDS011;1865;50.918;7.092;2022-12-29T15:25:59;12.83;;;1.27;;
3698;SDS011;1865;50.918;7.092;2022-12-29T15:28:36;11.27;;;1.27;;
3698;SDS011;1865;50.918;7.092;2022-12-29T15:31:23;11.90;;;1.00;;
3698;SDS011;1865;50.918;7.092;2022-12-29T15:33:51;8.80;;;0.90;;
3698;SDS011;1865;50.918;7.092;2022-12-29T15:36:25;9.00;;;1.27;;
3698;SDS011;1865;50.918;7.092;2022-12-29T15:38:52;11.63;;;1.53;;
3698;SDS011;1865;50.918;7.092;2022-12-29T15:44:37;15.63;;;1.10;;
3698;SDS011;1865;50.918;7.092;2022-12-29T15:47:06;14.60;;;1.27;;
3698;SDS011;1865;50.918;7.092;2022-12-29T15:49:39;9.67;;;2.23;;
3698;SDS011;1865;50.918;7.092;2022-12-29T15:52:07;7.53;;;1.10;;
3698;SDS011;1865;50.918;7.092;2022-12-29T15:54:33;9.93;;;1.33;;
3698;SDS011;1865;50.918;7.092;2022-12-29T15:56:59;10.37;;;1.30;;
3698;SDS011;1865;50.918;7.092;2022-12-29T15:59:26;13.10;;;2.40;;
3698;SDS011;1865;50.918;7.092;2022-12-29T16:02:01;7.87;;;1.07;;
3698;SDS011;1865;50.918;7.092;2022-12-29T16:04:28;9.27;;;1.17;;
3698;SDS011;1865;50.918;7.092;2022-12-29T16:09:31;7.20;;;1.50;;
3698;SDS011;1865;50.918;7.092;2022-12-29T16:12:06;9.37;;;1.27;;
3698;SDS011;1865;50.918;7.092;2022-12-29T16:14:45;11.97;;;1.10;;
3698;SDS011;1865;50.918;7.092;2022-12-29T16:17:15;12.33;;;1.70;;
3698;SDS011;1865;50.918;7.092;2022-12-29T16:19:52;12.07;;;1.10;;
3698;SDS011;1865;50.918;7.092;2022-12-29T16:22:34;8.10;;;1.43;;
3698;SDS011;1865;50.918;7.092;2022-12-29T16:25:16;12.63;;;1.80;;
3698;SDS011;1865;50.918;7.092;2022-12-29T16:27:47;18.90;;;1.67;;
3698;SDS011;1865;50.918;7.092;2022-12-29T16:30:20;7.23;;;1.30;;
3698;SDS011;1865;50.918;7.092;2022-12-29T16:32:49;12.60;;;3.43;;
3698;SDS011;1865;50.918;7.092;2022-12-29T16:43:25;15.17;;;6.00;;
3698;SDS011;1865;50.918;7.092;2022-12-29T16:48:32;10.33;;;2.00;;
3698;SDS011;1865;50.918;7.092;2022-12-29T16:51:05;12.90;;;2.00;;
3698;SDS011;1865;50.918;7.092;2022-12-29T16:53:42;12.53;;;1.80;;
3698;SDS011;1865;50.918;7.092;2022-12-29T16:56:17;14.80;;;2.20;;
3698;SDS011;1865;50.918;7.092;2022-12-29T16:58:48;13.17;;;2.50;;
3698;SDS011;1865;50.918;7.092;2022-12-29T17:01:18;12.10;;;2.20;;
3698;SDS011;1865;50.918;7.092;2022-12-29T17:03:54;8.50;;;1.53;;
3698;SDS011;1865;50.918;7.092;2022-12-29T17:06:23;7.00;;;1.40;;
3698;SDS011;1865;50.918;7.092;2022-12-29T17:08:49;9.93;;;1.87;;
3698;SDS011;1865;50.918;7.092;2022-12-29T17:11:22;9.63;;;1.40;;
3698;SDS011;1865;50.918;7.092;2022-12-29T17:14:15;12.33;;;2.03;;
3698;SDS011;1865;50.918;7.092;2022-12-29T17:17:02;11.97;;;2.60;;
3698;SDS011;1865;50.918;7.092;2022-12-29T17:19:30;12.30;;;3.10;;
3698;SDS011;1865;50.918;7.092;2022-12-29T17:21:58;11.63;;;1.60;;
3698;SDS011;1865;50.918;7.092;2022-12-29T17:24:24;8.07;;;1.93;;
3698;SDS011;1865;50.918;7.092;2022-12-29T17:26:51;11.20;;;2.20;;
3698;SDS011;1865;50.918;7.092;2022-12-29T17:29:21;13.60;;;2.00;;
3698;SDS011;1865;50.918;7.092;2022-12-29T17:31:58;11.97;;;2.20;;
3698;SDS011;1865;50.918;7.092;2022-12-29T17:34:24;10.23;;;1.37;;
3698;SDS011;1865;50.918;7.092;2022-12-29T17:36:50;9.53;;;1.40;;
3698;SDS011;1865;50.918;7.092;2022-12-29T17:39:16;8.50;;;1.37;;
3698;SDS011;1865;50.918;7.092;2022-12-29T17:41:41;10.93;;;1.67;;
3698;SDS011;1865;50.918;7.092;2022-12-29T17:44:08;10.40;;;3.00;;
3698;SDS011;1865;50.918;7.092;2022-12-29T17:46:40;15.53;;;2.47;;
3698;SDS011;1865;50.918;7.092;2022-12-29T17:49:09;11.73;;;1.93;;
3698;SDS011;1865;50.918;7.092;2022-12-29T17:51:40;10.07;;;2.00;;
3698;SDS011;1865;50.918;7.092;2022-12-29T17:54:13;8.90;;;1.27;;
3698;SDS011;1865;50.918;7.092;2022-12-29T17:56:51;15.50;;;5.10;;